Time;durP1;ratioP1;P1;durP2;ratioP2;P2;SDS_P1;SDS_P2;PMS_P1;PMS_P2;Temp;Humidity;BMP_temperature;BMP_pressure;BME280_temperature;BME280_humidity;BME280_pressure;Samples;Min_cycle;Max_cycle;Signal;HPM_P1;HPM_P2
2022/01/17 00:02:20;;;;;;;3.53;3.23;;;18.90;39.60;;;;;;5043258;28;20477;-74
2022/01/17 00:04:47;;;;;;;4.27;3.83;;;18.90;39.60;;;;;;5040645;28;20430;-74
2022/01/17 00:07:13;;;;;;;3.33;3.13;;;18.90;39.70;;;;;;5037299;28;20429;-74
2022/01/17 00:09:38;;;;;;;3.40;3.20;;;18.90;39.70;;;;;;5043209;28;20886;-74
2022/01/17 00:12:04;;;;;;;3.60;3.30;;;18.90;39.60;;;;;;5038141;28;20225;-75
2022/01/17 00:14:34;;;;;;;3.60;3.40;;;19.00;39.70;;;;;;5041114;28;20223;-74
2022/01/17 00:17:27;;;;;;;2.80;2.70;;;19.00;39.80;;;;;;5046899;28;20459;-74
2022/01/17 00:19:55;;;;;;;3.60;3.40;;;18.90;39.60;;;;;;5044415;28;20418;-74
2022/01/17 00:22:24;;;;;;;3.20;3.00;;;18.90;39.70;;;;;;5042786;28;20456;-74
2022/01/17 00:24:50;;;;;;;3.43;3.23;;;18.90;39.70;;;;;;5038620;28;20476;-74
2022/01/17 00:27:16;;;;;;;3.87;3.57;;;18.90;39.70;;;;;;5038349;28;20790;-74
2022/01/17 00:29:42;;;;;;;3.30;3.00;;;18.90;39.70;;;;;;5039895;28;20522;-74
2022/01/17 00:32:08;;;;;;;3.90;3.60;;;18.90;39.70;;;;;;5039754;28;20982;-73
2022/01/17 00:34:35;;;;;;;3.67;3.47;;;18.90;39.70;;;;;;5045050;28;20222;-73
2022/01/17 00:37:01;;;;;;;3.30;3.10;;;18.90;39.70;;;;;;5044896;28;20940;-73
2022/01/17 00:39:27;;;;;;;3.97;3.67;;;18.90;39.70;;;;;;5041836;28;20455;-73
2022/01/17 00:41:52;;;;;;;3.70;3.40;;;18.90;39.70;;;;;;5041063;28;20641;-73
2022/01/17 00:44:21;;;;;;;3.40;3.20;;;18.90;39.70;;;;;;5038633;28;20436;-73
2022/01/17 00:46:48;;;;;;;3.30;3.10;;;18.90;39.70;;;;;;5040969;28;20228;-77
2022/01/17 00:49:14;;;;;;;3.07;2.87;;;18.90;39.70;;;;;;5044094;28;21002;-78
2022/01/17 00:51:40;;;;;;;3.07;2.87;;;18.90;39.70;;;;;;5040313;28;20428;-78
2022/01/17 00:54:05;;;;;;;3.93;3.63;;;18.90;39.70;;;;;;5044944;28;20218;-77
2022/01/17 00:56:31;;;;;;;3.87;3.23;;;18.90;39.70;;;;;;5042836;28;20235;-77
2022/01/17 00:58:56;;;;;;;4.87;3.30;;;18.90;39.70;;;;;;5041908;28;20219;-76
2022/01/17 01:01:22;;;;;;;3.00;2.77;;;18.90;39.70;;;;;;5042850;28;20226;-76
2022/01/17 01:03:48;;;;;;;3.10;2.90;;;18.90;39.70;;;;;;5038903;28;20676;-75
2022/01/17 01:06:14;;;;;;;2.90;2.70;;;18.90;39.70;;;;;;5040860;28;20250;-75
2022/01/17 01:08:40;;;;;;;3.00;2.80;;;18.90;39.70;;;;;;5039718;28;20750;-75
2022/01/17 01:11:05;;;;;;;2.90;2.70;;;18.90;39.70;;;;;;5045992;28;20477;-75
2022/01/17 01:13:31;;;;;;;3.53;3.33;;;18.90;39.70;;;;;;5043828;28;20888;-75
2022/01/17 01:29:09;;;;;;;3.10;2.90;;;18.90;39.70;;;;;;5038689;28;20500;-75
2022/01/17 01:34:40;;;;;;;3.50;3.20;;;18.90;39.80;;;;;;5031309;28;20237;-74
2022/01/17 01:37:06;;;;;;;2.73;2.53;;;18.90;39.70;;;;;;5039532;28;20478;-74
2022/01/17 01:39:33;;;;;;;4.10;2.87;;;18.90;39.70;;;;;;5041133;28;20451;-75
2022/01/17 01:41:59;;;;;;;3.47;3.27;;;18.90;39.70;;;;;;5040150;28;20246;-74
2022/01/17 01:44:26;;;;;;;3.57;3.27;;;18.90;39.80;;;;;;5041667;28;20437;-74
2022/01/17 01:46:55;;;;;;;3.43;3.13;;;18.90;39.80;;;;;;5035694;28;20450;-73
2022/01/17 01:49:22;;;;;;;2.87;2.67;;;18.90;39.70;;;;;;5043331;28;20457;-74
2022/01/17 01:51:48;;;;;;;3.30;3.10;;;18.90;39.70;;;;;;5043533;28;20500;-76
2022/01/17 01:54:14;;;;;;;3.30;3.00;;;18.90;39.80;;;;;;5044384;28;20543;-73
2022/01/17 01:56:44;;;;;;;3.60;3.40;;;18.90;39.70;;;;;;5039504;28;21067;-74
2022/01/17 01:59:10;;;;;;;3.00;2.80;;;18.90;39.70;;;;;;5043889;28;20410;-75
2022/01/17 02:01:36;;;;;;;3.23;3.00;;;18.90;39.80;;;;;;5036582;28;20466;-75
2022/01/17 02:04:03;;;;;;;3.20;2.73;;;18.90;39.80;;;;;;5038313;28;20821;-75
2022/01/17 02:06:29;;;;;;;3.40;3.10;;;18.90;39.80;;;;;;5039431;28;20252;-75
2022/01/17 02:08:55;;;;;;;3.13;2.93;;;18.90;39.80;;;;;;5036636;28;20445;-75
2022/01/17 02:11:20;;;;;;;3.60;3.30;;;18.90;39.80;;;;;;5044354;28;20214;-75
2022/01/17 02:13:46;;;;;;;2.87;2.70;;;18.90;39.80;;;;;;5043241;28;20242;-75
2022/01/17 02:16:15;;;;;;;2.73;2.57;;;18.90;39.80;;;;;;5044700;28;21042;-75
2022/01/17 02:18:44;;;;;;;2.70;2.50;;;18.90;39.80;;;;;;5040422;28;20525;-75
2022/01/17 02:23:54;;;;;;;2.77;2.57;;;18.90;39.80;;;;;;5041187;28;20912;-73
2022/01/17 02:26:21;;;;;;;2.93;2.73;;;18.90;39.80;;;;;;5040167;28;20489;-74
2022/01/17 02:28:52;;;;;;;3.30;3.10;;;18.90;39.80;;;;;;5033314;28;20924;-75
2022/01/17 02:31:20;;;;;;;3.17;2.97;;;18.90;39.80;;;;;;5042456;28;20863;-73
2022/01/17 02:33:46;;;;;;;3.23;3.03;;;18.90;39.80;;;;;;5039578;28;20465;-73
2022/01/17 02:36:12;;;;;;;2.53;2.33;;;18.90;39.80;;;;;;5038605;28;20473;-73
2022/01/17 02:38:39;;;;;;;2.93;2.73;;;18.90;39.80;;;;;;5038081;28;20223;-74
2022/01/17 02:41:05;;;;;;;2.90;2.70;;;18.90;39.80;;;;;;5038602;28;20230;-73
2022/01/17 02:43:32;;;;;;;3.10;2.90;;;18.90;39.80;;;;;;5045253;28;20985;-73
2022/01/17 02:48:29;;;;;;;2.93;2.73;;;18.90;39.80;;;;;;5044469;28;20448;-73
2022/01/17 02:50:56;;;;;;;3.07;2.87;;;18.80;39.70;;;;;;5037727;28;20448;-73
2022/01/17 02:53:23;;;;;;;4.00;3.80;;;18.90;39.80;;;;;;5039950;28;20521;-73
2022/01/17 02:55:59;;;;;;;3.40;3.20;;;18.90;39.80;;;;;;5038044;28;20475;-73
2022/01/17 02:58:27;;;;;;;4.60;3.37;;;18.90;39.80;;;;;;5040582;28;20435;-73
2022/01/17 03:00:55;;;;;;;2.90;2.70;;;18.80;39.70;;;;;;5034648;28;20519;-73
2022/01/17 03:03:24;;;;;;;3.07;2.87;;;18.90;39.80;;;;;;5040252;28;20451;-73
2022/01/17 03:05:49;;;;;;;3.60;3.30;;;18.90;39.80;;;;;;5038467;28;20463;-75
2022/01/17 03:08:17;;;;;;;3.00;2.80;;;18.80;39.70;;;;;;5035322;28;20427;-74
2022/01/17 03:10:50;;;;;;;3.03;2.83;;;18.90;39.80;;;;;;5041200;28;20299;-75
2022/01/17 03:13:19;;;;;;;2.87;2.70;;;18.90;39.80;;;;;;5041595;28;20426;-74
2022/01/17 03:15:56;;;;;;;2.93;2.73;;;18.90;39.80;;;;;;5040205;28;20455;-74
2022/01/17 03:18:27;;;;;;;3.30;3.10;;;18.90;39.80;;;;;;5037261;28;20989;-74
2022/01/17 03:20:52;;;;;;;3.17;2.97;;;18.80;39.70;;;;;;5037578;28;21004;-75
2022/01/17 03:23:18;;;;;;;3.70;3.20;;;18.80;39.70;;;;;;5042629;28;20488;-75
2022/01/17 03:25:44;;;;;;;3.30;3.10;;;18.90;39.80;;;;;;5038248;28;20266;-74
2022/01/17 03:28:10;;;;;;;3.10;2.90;;;18.80;39.70;;;;;;5043386;28;20736;-74
2022/01/17 03:30:36;;;;;;;3.50;3.20;;;18.90;39.80;;;;;;5040950;28;20297;-74
2022/01/17 03:33:04;;;;;;;4.27;3.97;;;18.90;39.80;;;;;;5043020;28;20525;-74
2022/01/17 03:35:30;;;;;;;3.07;2.87;;;18.90;39.80;;;;;;5044707;28;20241;-74
2022/01/17 03:37:56;;;;;;;3.33;3.13;;;18.90;39.80;;;;;;5041285;28;20435;-74
2022/01/17 03:40:22;;;;;;;3.60;3.40;;;18.80;39.60;;;;;;5043090;28;20506;-72
2022/01/17 03:42:47;;;;;;;3.47;3.17;;;18.80;39.60;;;;;;5044196;28;20228;-72
2022/01/17 03:45:13;;;;;;;3.70;3.40;;;18.80;39.70;;;;;;5041261;28;20262;-75
2022/01/17 03:47:41;;;;;;;3.00;2.80;;;18.80;39.70;;;;;;5039021;28;20226;-72
2022/01/17 03:50:11;;;;;;;3.37;3.17;;;18.90;39.80;;;;;;5043030;28;20218;-73
2022/01/17 03:52:39;;;;;;;3.00;2.80;;;18.80;39.70;;;;;;5038125;28;20518;-74
2022/01/17 03:55:06;;;;;;;3.37;3.07;;;18.80;39.70;;;;;;5042496;28;20910;-73
2022/01/17 03:57:32;;;;;;;3.00;2.80;;;18.80;39.70;;;;;;5041721;28;20431;-73
2022/01/17 03:59:57;;;;;;;3.43;3.20;;;18.80;39.70;;;;;;5041696;28;20444;-72
2022/01/17 04:02:23;;;;;;;4.00;3.60;;;18.90;39.80;;;;;;5044013;28;20242;-73
2022/01/17 04:04:49;;;;;;;3.17;2.97;;;18.80;39.70;;;;;;5039264;28;20241;-73
2022/01/17 04:07:14;;;;;;;3.27;3.07;;;18.80;39.70;;;;;;5037838;28;20667;-74
2022/01/17 04:09:40;;;;;;;3.47;3.17;;;18.80;39.70;;;;;;5044693;28;20237;-72
2022/01/17 04:12:06;;;;;;;3.20;3.00;;;18.80;39.70;;;;;;5043634;28;20225;-72
2022/01/17 04:14:35;;;;;;;3.90;3.50;;;18.80;39.70;;;;;;5043925;28;20231;-73
2022/01/17 04:17:01;;;;;;;3.10;2.90;;;18.80;39.70;;;;;;5041184;28;20823;-72
2022/01/17 04:19:27;;;;;;;3.10;2.90;;;18.80;39.70;;;;;;5037200;28;20430;-72
2022/01/17 04:21:52;;;;;;;3.07;2.87;;;18.80;40.50;;;;;;5041485;28;20448;-72
2022/01/17 04:24:18;;;;;;;3.47;3.17;;;18.80;39.70;;;;;;5038397;28;20223;-72
2022/01/17 04:26:45;;;;;;;3.53;3.23;;;18.80;39.70;;;;;;5044927;28;20307;-72
2022/01/17 04:29:11;;;;;;;3.17;2.90;;;18.80;39.80;;;;;;5036870;28;20239;-72
2022/01/17 04:31:37;;;;;;;3.10;2.90;;;18.80;39.80;;;;;;5045182;28;20455;-72
2022/01/17 04:34:03;;;;;;;6.40;3.13;;;18.80;39.70;;;;;;5046003;28;20418;-72
2022/01/17 04:36:28;;;;;;;3.77;3.57;;;18.80;39.70;;;;;;5038967;28;20845;-72
2022/01/17 04:38:54;;;;;;;4.43;4.13;;;18.80;39.70;;;;;;5035351;28;20572;-72
2022/01/17 04:41:27;;;;;;;3.10;2.90;;;18.80;39.70;;;;;;5041565;28;20344;-72
2022/01/17 04:44:03;;;;;;;3.57;3.37;;;18.80;39.70;;;;;;5039931;28;20329;-72
2022/01/17 04:46:29;;;;;;;3.23;3.03;;;18.80;39.80;;;;;;5039398;28;20441;-72
2022/01/17 04:48:57;;;;;;;3.50;3.23;;;18.80;39.80;;;;;;5045029;28;21038;-72
2022/01/17 04:51:22;;;;;;;3.17;2.97;;;18.80;39.70;;;;;;5042694;28;20227;-73
2022/01/17 04:54:04;;;;;;;4.10;3.80;;;18.80;39.70;;;;;;5039722;28;20447;-73
2022/01/17 04:56:30;;;;;;;3.07;2.87;;;18.80;39.80;;;;;;5039804;28;20227;-73
2022/01/17 04:58:55;;;;;;;3.10;2.90;;;18.80;39.80;;;;;;5041006;28;20449;-72
2022/01/17 05:01:21;;;;;;;3.37;3.17;;;18.80;39.80;;;;;;5039053;28;20624;-72
2022/01/17 05:03:46;;;;;;;3.30;3.10;;;18.80;39.70;;;;;;5043969;28;20233;-73
2022/01/17 05:06:12;;;;;;;3.87;3.60;;;18.80;39.80;;;;;;5041343;28;20683;-79
2022/01/17 05:08:38;;;;;;;3.67;3.37;;;18.80;39.70;;;;;;5041227;28;20226;-79
2022/01/17 05:11:03;;;;;;;3.53;3.33;;;18.80;40.50;;;;;;5039700;28;20568;-78
2022/01/17 05:13:33;;;;;;;3.43;3.23;;;18.80;39.70;;;;;;5042827;28;20223;-76
2022/01/17 05:16:13;;;;;;;3.83;3.53;;;18.80;39.70;;;;;;5034162;28;20235;-76
2022/01/17 05:21:04;;;;;;;3.43;3.23;;;18.80;39.70;;;;;;5038169;28;21004;-76
2022/01/17 05:23:30;;;;;;;3.30;3.10;;;18.90;39.70;;;;;;5043332;28;20226;-75
2022/01/17 05:25:56;;;;;;;3.37;3.17;;;18.90;39.80;;;;;;5041515;28;20583;-76
2022/01/17 05:28:21;;;;;;;3.03;2.83;;;18.90;39.70;;;;;;5043348;28;20251;-75
2022/01/17 05:30:47;;;;;;;3.33;3.13;;;18.90;39.70;;;;;;5043907;28;20301;-75
2022/01/17 05:33:13;;;;;;;3.60;3.37;;;18.90;39.70;;;;;;5042789;28;20214;-74
2022/01/17 05:35:38;;;;;;;3.13;2.93;;;18.90;39.70;;;;;;5038899;28;20244;-73
2022/01/17 05:38:04;;;;;;;3.17;2.97;;;18.90;39.70;;;;;;5039858;28;20245;-74
2022/01/17 05:40:30;;;;;;;3.43;3.23;;;18.90;39.70;;;;;;5034219;28;20237;-78
2022/01/17 05:42:56;;;;;;;3.50;3.30;;;18.90;39.70;;;;;;5038884;28;20226;-77
2022/01/17 05:45:22;;;;;;;3.43;3.23;;;18.90;39.70;;;;;;5041896;28;20310;-78
2022/01/17 05:47:48;;;;;;;3.13;2.93;;;18.90;39.60;;;;;;5039466;28;20493;-80
2022/01/17 05:50:14;;;;;;;3.37;3.17;;;18.90;39.60;;;;;;5041616;28;20223;-79
2022/01/17 05:52:41;;;;;;;3.13;2.93;;;18.90;39.60;;;;;;5040065;28;20262;-74
2022/01/17 05:55:09;;;;;;;3.20;3.00;;;18.90;39.60;;;;;;5036320;28;20530;-74
2022/01/17 05:57:35;;;;;;;3.77;3.57;;;19.00;39.60;;;;;;5041725;28;21267;-76
2022/01/17 06:00:03;;;;;;;2.90;2.70;;;19.00;39.60;;;;;;5042769;28;20455;-79
2022/01/17 06:02:29;;;;;;;3.07;2.77;;;19.00;39.50;;;;;;5040268;28;20226;-80
2022/01/17 06:04:54;;;;;;;3.17;2.97;;;19.10;39.50;;;;;;5037638;28;20515;-79
2022/01/17 06:07:20;;;;;;;3.37;3.17;;;19.10;39.40;;;;;;5040096;28;20223;-79
2022/01/17 06:09:45;;;;;;;3.17;2.97;;;19.10;39.40;;;;;;5041534;28;20238;-80
2022/01/17 06:12:12;;;;;;;3.40;3.20;;;19.10;39.30;;;;;;5043357;28;20222;-80
2022/01/17 06:14:39;;;;;;;3.83;3.43;;;19.10;40.10;;;;;;5040871;28;20229;-76
2022/01/17 06:17:04;;;;;;;3.17;2.97;;;19.10;39.30;;;;;;5038737;28;20456;-78
2022/01/17 06:19:30;;;;;;;3.20;3.00;;;19.10;39.30;;;;;;5036875;28;20499;-80
2022/01/17 06:21:56;;;;;;;3.10;2.90;;;19.10;39.30;;;;;;5035827;28;20226;-81
2022/01/17 06:24:23;;;;;;;3.03;2.83;;;19.10;39.30;;;;;;5035973;28;20258;-79
2022/01/17 06:26:50;;;;;;;3.60;3.40;;;19.10;39.30;;;;;;5044772;28;20227;-82
2022/01/17 06:29:16;;;;;;;3.53;3.23;;;19.10;39.20;;;;;;5040600;28;20540;-75
2022/01/17 06:31:43;;;;;;;7.30;3.57;;;19.10;39.30;;;;;;5040843;28;20442;-83
2022/01/17 06:34:10;;;;;;;3.97;3.67;;;19.10;39.30;;;;;;5038738;28;20443;-82
2022/01/17 06:36:36;;;;;;;3.60;3.40;;;19.20;39.40;;;;;;5041322;28;20889;-71
2022/01/17 06:39:03;;;;;;;3.70;3.00;;;19.10;39.30;;;;;;5041107;28;20462;-77
2022/01/17 06:41:30;;;;;;;3.77;3.13;;;19.10;39.30;;;;;;5039682;28;20219;-76
2022/01/17 06:43:56;;;;;;;3.77;3.47;;;19.20;39.40;;;;;;5029972;28;20495;-76
2022/01/17 06:46:22;;;;;;;3.67;3.37;;;19.10;39.30;;;;;;5013063;28;20925;-76
2022/01/17 06:48:47;;;;;;;3.03;2.83;;;19.10;39.30;;;;;;5017410;28;20452;-76
2022/01/17 06:51:14;;;;;;;3.03;2.83;;;19.10;39.30;;;;;;5008141;28;20460;-75
2022/01/17 06:53:41;;;;;;;3.77;3.20;;;19.10;39.30;;;;;;5028795;28;20238;-76
2022/01/17 06:56:09;;;;;;;3.57;3.27;;;19.10;39.30;;;;;;5019690;28;20957;-75
2022/01/17 06:58:36;;;;;;;4.10;3.70;;;19.10;39.40;;;;;;5033574;28;20965;-75
2022/01/17 07:01:03;;;;;;;3.70;3.33;;;19.20;39.50;;;;;;5035709;28;20457;-74
2022/01/17 07:03:28;;;;;;;2.97;2.77;;;19.10;39.40;;;;;;5049203;28;20543;-74
2022/01/17 07:05:54;;;;;;;2.93;2.73;;;19.20;39.50;;;;;;5038807;28;20543;-74
2022/01/17 07:08:20;;;;;;;2.93;2.73;;;19.20;39.50;;;;;;5037594;28;20309;-74
2022/01/17 07:10:45;;;;;;;2.77;2.57;;;19.20;39.50;;;;;;5043855;28;20223;-69
2022/01/17 07:13:11;;;;;;;3.67;3.20;;;19.10;39.50;;;;;;5038898;28;20736;-74
2022/01/17 07:15:37;;;;;;;3.10;2.90;;;19.10;39.50;;;;;;5043666;28;20241;-74
2022/01/17 07:18:03;;;;;;;3.37;3.07;;;19.10;39.50;;;;;;5044597;28;20244;-72
2022/01/17 07:20:29;;;;;;;3.03;2.83;;;19.10;39.50;;;;;;5050397;28;20257;-78
2022/01/17 07:22:54;;;;;;;3.50;3.30;;;19.20;39.50;;;;;;5037748;28;20222;-75
2022/01/17 07:25:20;;;;;;;2.80;2.60;;;19.10;39.40;;;;;;5038315;28;20699;-73
2022/01/17 07:27:46;;;;;;;2.70;2.60;;;19.10;39.50;;;;;;5045818;28;20245;-74
2022/01/17 07:30:12;;;;;;;3.03;2.83;;;19.20;39.50;;;;;;5053902;28;20245;-73
2022/01/17 07:32:38;;;;;;;2.83;2.63;;;19.10;39.40;;;;;;5040866;28;20245;-73
2022/01/17 07:35:06;;;;;;;2.90;2.70;;;19.20;39.60;;;;;;5038877;28;20948;-71
2022/01/17 07:37:32;;;;;;;3.20;3.00;;;19.20;39.50;;;;;;5035144;28;20456;-77
2022/01/17 07:39:57;;;;;;;2.90;2.70;;;19.10;39.40;;;;;;5036765;28;20501;-75
2022/01/17 07:42:23;;;;;;;3.40;3.10;;;19.10;39.40;;;;;;5040550;28;20447;-75
2022/01/17 07:44:54;;;;;;;3.47;3.17;;;19.20;39.50;;;;;;5040144;28;20264;-81
2022/01/17 07:47:28;;;;;;;3.03;2.83;;;19.10;39.40;;;;;;5039538;28;20223;-76
2022/01/17 07:49:53;;;;;;;2.90;2.70;;;19.20;39.50;;;;;;5043994;28;20450;-75
2022/01/17 07:52:19;;;;;;;3.10;2.90;;;19.20;39.50;;;;;;5030691;28;20450;-75
2022/01/17 07:54:47;;;;;;;3.10;2.90;;;19.10;39.40;;;;;;5025415;28;20589;-75
2022/01/17 07:57:14;;;;;;;3.10;2.90;;;19.20;39.50;;;;;;5014748;28;20227;-74
2022/01/17 07:59:39;;;;;;;3.53;3.33;;;19.20;39.50;;;;;;5033521;28;20448;-75
2022/01/17 08:02:06;;;;;;;3.40;3.20;;;19.10;39.40;;;;;;5038054;28;20467;-76
2022/01/17 08:04:32;;;;;;;3.33;3.13;;;19.20;39.50;;;;;;5055788;28;20771;-79
2022/01/17 08:06:57;;;;;;;9.43;3.13;;;19.20;39.50;;;;;;5037977;28;20547;-78
2022/01/17 08:09:30;;;;;;;2.60;2.40;;;19.10;39.40;;;;;;5043167;28;20741;-78
2022/01/17 08:11:56;;;;;;;3.40;3.20;;;19.20;39.60;;;;;;5042088;28;20261;-77
2022/01/17 08:14:24;;;;;;;3.03;2.83;;;19.10;39.40;;;;;;5048783;28;20849;-76
2022/01/17 08:16:49;;;;;;;3.10;2.90;;;19.20;39.50;;;;;;5041560;28;20534;-76
2022/01/17 08:19:15;;;;;;;2.73;2.60;;;19.10;39.40;;;;;;5047266;28;21026;-75
2022/01/17 08:21:41;;;;;;;3.50;3.30;;;19.20;40.30;;;;;;5045337;28;20227;-75
2022/01/17 08:24:07;;;;;;;3.23;3.03;;;19.20;39.60;;;;;;5038956;28;20810;-75
2022/01/17 08:26:33;;;;;;;3.20;3.00;;;19.10;39.40;;;;;;5037717;28;20687;-75
2022/01/17 08:28:58;;;;;;;3.13;2.93;;;19.10;39.50;;;;;;5045261;28;20493;-75
2022/01/17 08:31:24;;;;;;;3.43;3.13;;;19.10;39.50;;;;;;5056142;28;20582;-75
2022/01/17 08:33:50;;;;;;;2.43;2.23;;;19.20;39.60;;;;;;5041021;28;20778;-75
2022/01/17 08:36:19;;;;;;;3.20;2.90;;;19.10;39.50;;;;;;5049310;28;20459;-74
2022/01/17 08:38:48;;;;;;;3.20;3.00;;;19.10;39.50;;;;;;5046171;28;20904;-81
2022/01/17 08:41:16;;;;;;;2.67;2.47;;;19.20;39.60;;;;;;5041259;28;20462;-79
2022/01/17 08:43:41;;;;;;;3.27;3.07;;;19.10;39.50;;;;;;5048059;28;20443;-77
2022/01/17 08:46:07;;;;;;;2.70;2.50;;;19.10;39.60;;;;;;5040606;28;20889;-76
2022/01/17 08:48:33;;;;;;;2.90;2.70;;;19.20;39.70;;;;;;5041707;28;20218;-76
2022/01/17 08:50:59;;;;;;;3.17;2.60;;;19.10;39.60;;;;;;5043941;28;20956;-75
2022/01/17 08:53:26;;;;;;;2.87;2.67;;;19.10;39.60;;;;;;5059157;28;20225;-76
2022/01/17 08:55:52;;;;;;;3.10;2.90;;;19.10;39.60;;;;;;5039652;28;20249;-74
2022/01/17 08:58:18;;;;;;;2.53;2.43;;;19.10;39.50;;;;;;5040485;28;20801;-79
2022/01/17 09:00:44;;;;;;;2.70;2.50;;;19.10;39.60;;;;;;5039016;28;20261;-76
2022/01/17 09:03:10;;;;;;;2.90;2.70;;;19.10;39.50;;;;;;5056792;28;20810;-75
2022/01/17 09:05:37;;;;;;;3.10;2.90;;;19.10;39.60;;;;;;5038395;28;20465;-76
2022/01/17 09:08:04;;;;;;;3.23;3.03;;;19.10;39.50;;;;;;5040683;28;20443;-74
2022/01/17 09:10:31;;;;;;;3.03;2.70;;;19.10;39.50;;;;;;5042035;28;20463;-78
2022/01/17 09:12:57;;;;;;;2.73;2.53;;;19.10;39.60;;;;;;5044433;28;20803;-81
2022/01/17 09:15:23;;;;;;;3.13;2.83;;;19.20;39.60;;;;;;5043706;28;20522;-80
2022/01/17 09:17:49;;;;;;;3.30;3.10;;;19.10;39.50;;;;;;5040486;28;20538;-78
2022/01/17 09:20:15;;;;;;;3.07;2.77;;;19.10;39.50;;;;;;5045016;28;20993;-78
2022/01/17 09:22:41;;;;;;;3.10;2.90;;;19.20;39.70;;;;;;5039016;28;20546;-77
2022/01/17 09:25:08;;;;;;;3.00;2.70;;;19.10;39.90;;;;;;5043071;28;20510;-77
2022/01/17 09:27:35;;;;;;;3.53;3.33;;;19.10;39.50;;;;;;5036474;28;20246;-76
2022/01/17 09:30:01;;;;;;;3.00;2.80;;;19.10;39.50;;;;;;5042734;28;20456;-75
2022/01/17 09:32:27;;;;;;;3.17;2.97;;;19.10;39.50;;;;;;5041784;28;20451;-75
2022/01/17 09:34:52;;;;;;;3.33;3.03;;;19.10;39.50;;;;;;5038035;28;20420;-75
2022/01/17 09:37:18;;;;;;;3.10;2.90;;;19.10;39.50;;;;;;5040703;28;20247;-75
2022/01/17 09:39:45;;;;;;;3.10;2.90;;;19.10;39.50;;;;;;5042813;28;20322;-73
2022/01/17 09:42:12;;;;;;;3.10;2.77;;;19.10;39.50;;;;;;5044366;28;20449;-74
2022/01/17 09:44:38;;;;;;;3.13;2.93;;;19.10;39.60;;;;;;5042352;28;20222;-74
2022/01/17 09:47:06;;;;;;;3.17;2.90;;;19.10;39.60;;;;;;5042995;28;20426;-74
2022/01/17 09:49:37;;;;;;;4.83;2.93;;;19.10;39.60;;;;;;5053171;28;20514;-73
2022/01/17 09:52:52;;;;;;;2.80;2.60;;;19.10;39.60;;;;;;5033226;28;20448;-74
2022/01/17 09:54:54;;;;;;;2.90;2.70;;;19.10;39.60;;;;;;5035346;28;20513;-74
2022/01/17 09:57:21;;;;;;;3.00;2.80;;;19.10;39.60;;;;;;5040309;28;20994;-80
2022/01/17 09:59:47;;;;;;;2.50;2.30;;;19.10;39.70;;;;;;5039286;28;20459;-76
2022/01/17 10:02:14;;;;;;;2.97;2.77;;;19.10;39.70;;;;;;5042473;28;20962;-75
2022/01/17 10:04:40;;;;;;;3.30;2.80;;;19.00;39.70;;;;;;5036513;28;20230;-75
2022/01/17 10:07:06;;;;;;;3.43;3.23;;;19.10;39.70;;;;;;5040723;28;20444;-76
2022/01/17 10:09:34;;;;;;;3.10;2.90;;;19.00;39.70;;;;;;5053384;28;20255;-74
2022/01/17 10:12:09;;;;;;;3.13;2.83;;;19.10;39.70;;;;;;5038498;28;20448;-72
2022/01/17 10:14:59;;;;;;;3.47;3.27;;;19.10;39.70;;;;;;5045106;28;20815;-74
2022/01/17 10:17:48;;;;;;;3.63;3.40;;;19.00;39.60;;;;;;5041113;28;20959;-74
2022/01/17 10:20:17;;;;;;;2.70;2.50;;;19.00;39.70;;;;;;5041913;28;20478;-74
2022/01/17 10:22:59;;;;;;;3.20;3.00;;;19.00;39.70;;;;;;5035150;28;20452;-74
2022/01/17 10:25:39;;;;;;;2.93;2.73;;;19.00;39.70;;;;;;5038976;28;20462;-74
2022/01/17 10:36:00;;;;;;;3.17;2.90;;;19.00;39.80;;;;;;5033869;28;20238;-74
2022/01/17 10:38:27;;;;;;;2.87;2.67;;;19.00;39.80;;;;;;5040676;28;20831;-74
2022/01/17 10:40:58;;;;;;;2.50;2.40;;;19.00;39.80;;;;;;5038960;28;20222;-78
2022/01/17 10:43:34;;;;;;;2.87;2.33;;;19.00;39.80;;;;;;5036204;28;20435;-78
2022/01/17 10:46:04;;;;;;;2.73;2.40;;;19.00;39.80;;;;;;5043335;28;20596;-78
2022/01/17 10:48:34;;;;;;;3.53;3.33;;;19.00;39.80;;;;;;5038557;28;20545;-77
2022/01/17 10:51:01;;;;;;;2.93;2.73;;;19.00;39.80;;;;;;5029869;28;20444;-76
2022/01/17 10:53:27;;;;;;;2.70;2.50;;;19.00;39.80;;;;;;5029820;28;20446;-76
2022/01/17 10:55:56;;;;;;;3.50;3.20;;;19.00;39.80;;;;;;5036981;28;20455;-76
2022/01/17 10:58:32;;;;;;;4.03;2.67;;;19.00;39.80;;;;;;5039552;28;20210;-75
2022/01/17 11:01:03;;;;;;;3.37;3.13;;;19.00;39.80;;;;;;5040363;28;20542;-75
2022/01/17 11:03:31;;;;;;;3.20;3.00;;;19.00;39.80;;;;;;5035991;28;20427;-70
2022/01/17 11:06:02;;;;;;;2.67;2.50;;;19.00;39.80;;;;;;5037730;28;20460;-80
2022/01/17 11:08:29;;;;;;;2.80;2.60;;;19.00;39.80;;;;;;5039432;28;20448;-79
2022/01/17 11:10:59;;;;;;;2.70;2.50;;;19.00;39.80;;;;;;5042922;28;20444;-78
2022/01/17 11:13:30;;;;;;;4.03;2.50;;;19.00;39.80;;;;;;5039575;28;20920;-77
2022/01/17 11:16:00;;;;;;;3.10;2.90;;;19.00;39.80;;;;;;5037140;28;20431;-77
2022/01/17 11:18:28;;;;;;;3.40;3.10;;;19.00;39.80;;;;;;5038728;28;20467;-77
2022/01/17 11:21:00;;;;;;;2.83;2.63;;;19.00;39.80;;;;;;5040098;28;20443;-77
2022/01/17 11:23:27;;;;;;;2.63;2.47;;;19.00;39.80;;;;;;5039033;28;20509;-76
2022/01/17 11:25:55;;;;;;;2.57;2.47;;;19.00;39.80;;;;;;5038702;28;20997;-76
2022/01/17 11:28:32;;;;;;;2.80;2.60;;;19.00;39.80;;;;;;5036121;28;20459;-75
2022/01/17 11:31:00;;;;;;;2.73;2.53;;;19.00;39.90;;;;;;5038308;28;20976;-76
2022/01/17 11:33:26;;;;;;;3.73;3.30;;;19.00;39.80;;;;;;5038649;28;20447;-78
2022/01/17 11:35:53;;;;;;;2.60;2.40;;;19.00;39.90;;;;;;5041834;28;20532;-80
2022/01/17 11:38:41;;;;;;;2.83;2.63;;;19.00;39.90;;;;;;5039082;28;20455;-80
2022/01/17 11:41:30;;;;;;;2.60;2.50;;;19.00;39.90;;;;;;5040108;28;20422;-78
2022/01/17 11:43:58;;;;;;;2.80;2.60;;;19.00;39.90;;;;;;5041674;28;20434;-77
2022/01/17 11:46:43;;;;;;;2.83;2.63;;;18.90;39.80;;;;;;5035267;28;20407;-77
2022/01/17 11:49:09;;;;;;;3.00;2.80;;;19.00;39.90;;;;;;5041411;28;20458;-75
2022/01/17 11:51:46;;;;;;;2.90;2.70;;;19.00;39.90;;;;;;5043576;28;20453;-75
2022/01/17 11:54:24;;;;;;;2.70;2.50;;;19.00;39.90;;;;;;5040381;28;20437;-75
2022/01/17 11:56:56;;;;;;;2.50;2.40;;;19.00;39.90;;;;;;5042401;28;20452;-74
2022/01/17 11:59:48;;;;;;;2.60;2.40;;;19.00;39.90;;;;;;5046583;28;20817;-75
2022/01/17 12:02:14;;;;;;;3.20;3.00;;;18.90;39.80;;;;;;5039891;28;20434;-75
2022/01/17 12:04:40;;;;;;;2.73;2.53;;;18.90;39.80;;;;;;5041133;28;21920;-75
2022/01/17 12:07:06;;;;;;;2.90;2.70;;;18.90;39.80;;;;;;5042150;28;20235;-75
2022/01/17 12:09:32;;;;;;;2.70;2.50;;;19.00;39.90;;;;;;5046451;28;20437;-74
2022/01/17 12:12:06;;;;;;;2.70;2.50;;;18.90;39.90;;;;;;5044249;28;20214;-75
2022/01/17 12:14:40;;;;;;;2.93;2.73;;;18.90;39.80;;;;;;5041559;28;20942;-75
2022/01/17 12:17:32;;;;;;;2.97;2.77;;;18.90;39.90;;;;;;5042589;28;20474;-74
2022/01/17 12:20:16;;;;;;;2.70;2.40;;;18.90;39.90;;;;;;5042271;28;20429;-74
2022/01/17 12:22:45;;;;;;;2.80;2.60;;;18.90;39.90;;;;;;5042323;28;20430;-74
2022/01/17 12:25:27;;;;;;;3.00;2.80;;;18.90;39.90;;;;;;5045074;28;20441;-74
2022/01/17 12:28:04;;;;;;;2.30;2.20;;;18.90;39.90;;;;;;5044705;28;20508;-74
2022/01/17 12:30:53;;;;;;;3.00;2.80;;;18.90;39.90;;;;;;5041019;28;21019;-74
2022/01/17 12:33:40;;;;;;;2.57;2.37;;;18.90;39.90;;;;;;5039837;28;20553;-75
2022/01/17 12:36:28;;;;;;;2.73;2.53;;;18.90;39.90;;;;;;5040852;28;20439;-75
2022/01/17 12:39:19;;;;;;;2.50;2.40;;;18.90;40.00;;;;;;5037745;28;20479;-75
2022/01/17 12:41:48;;;;;;;2.40;2.30;;;18.90;39.90;;;;;;5039909;28;20418;-74
2022/01/17 12:44:22;;;;;;;2.40;2.30;;;18.90;40.00;;;;;;5043423;28;20470;-74
2022/01/17 12:46:51;;;;;;;2.57;2.47;;;18.90;40.00;;;;;;5045273;28;20810;-76
2022/01/17 12:49:18;;;;;;;2.30;2.20;;;18.90;40.00;;;;;;5040866;28;20465;-80
2022/01/17 12:51:49;;;;;;;2.00;1.90;;;18.90;40.00;;;;;;5042373;28;20542;-78
2022/01/17 12:54:20;;;;;;;2.67;2.47;;;18.90;39.90;;;;;;5045251;28;20458;-77
2022/01/17 12:56:50;;;;;;;2.43;2.33;;;18.90;40.00;;;;;;5040560;28;20466;-79
2022/01/17 12:59:17;;;;;;;2.50;2.40;;;18.90;40.00;;;;;;5039054;28;20957;-79
2022/01/17 13:01:53;;;;;;;2.53;2.33;;;18.90;39.90;;;;;;5037619;28;20451;-79
2022/01/17 13:04:21;;;;;;;2.20;2.10;;;18.90;39.90;;;;;;5044367;28;20447;-79
2022/01/17 13:06:51;;;;;;;2.10;2.00;;;18.90;39.90;;;;;;5043581;28;20448;-79
2022/01/17 13:09:21;;;;;;;3.03;2.63;;;18.90;40.00;;;;;;5040850;28;20972;-78
2022/01/17 13:11:48;;;;;;;2.50;2.30;;;18.90;40.00;;;;;;5042005;28;20422;-78
2022/01/17 13:14:16;;;;;;;2.53;2.33;;;18.90;39.90;;;;;;5040776;28;20521;-78
2022/01/17 13:16:43;;;;;;;2.53;2.43;;;18.90;39.90;;;;;;5042029;28;20449;-78
2022/01/17 13:19:11;;;;;;;3.67;2.07;;;18.90;40.00;;;;;;5040937;28;20438;-77
2022/01/17 13:21:39;;;;;;;3.03;2.83;;;18.90;40.00;;;;;;5042321;28;20483;-76
2022/01/17 13:24:20;;;;;;;2.30;2.20;;;18.90;40.00;;;;;;5055732;28;20798;-78
2022/01/17 13:26:58;;;;;;;2.00;1.90;;;18.90;40.10;;;;;;5042892;28;20441;-79